sensor_id;sensor_type;location;lat;lon;timestamp;P1;durP1;ratioP1;P2;durP2;ratioP2
52342;SDS011;38277;51.972;4.624;2022-08-11T00:03:22;3.8;;;2.3;;
52342;SDS011;38277;51.972;4.624;2022-08-11T00:07:59;3.5;;;2.4;;
52342;SDS011;38277;51.972;4.624;2022-08-11T00:12:34;3.3;;;2.6;;
52342;SDS011;38277;51.972;4.624;2022-08-11T00:21:22;3.1;;;2.4;;
52342;SDS011;38277;51.972;4.624;2022-08-11T00:26:17;2.5;;;2.2;;
52342;SDS011;38277;51.972;4.624;2022-08-11T00:30:25;4.0;;;2.3;;
52342;SDS011;38277;51.972;4.624;2022-08-11T00:35:12;3.8;;;2.2;;
52342;SDS011;38277;51.972;4.624;2022-08-11T00:39:45;3.9;;;2.6;;
52342;SDS011;38277;51.972;4.624;2022-08-11T00:45:26;5.1;;;2.6;;
52342;SDS011;38277;51.972;4.624;2022-08-11T00:52:24;2.8;;;2.2;;
52342;SDS011;38277;51.972;4.624;2022-08-11T00:57:53;4.2;;;2.8;;
52342;SDS011;38277;51.972;4.624;2022-08-11T01:03:07;3.2;;;2.7;;
52342;SDS011;38277;51.972;4.624;2022-08-11T01:11:33;4.6;;;2.5;;
52342;SDS011;38277;51.972;4.624;2022-08-11T01:20:21;3.1;;;2.3;;
52342;SDS011;38277;51.972;4.624;2022-08-11T01:32:13;4.7;;;2.6;;
52342;SDS011;38277;51.972;4.624;2022-08-11T01:42:00;4.3;;;2.9;;
52342;SDS011;38277;51.972;4.624;2022-08-11T01:54:36;3.2;;;2.4;;
52342;SDS011;38277;51.972;4.624;2022-08-11T01:57:35;4.9;;;2.7;;
52342;SDS011;38277;51.972;4.624;2022-08-11T02:01:49;3.1;;;2.4;;
52342;SDS011;38277;51.972;4.624;2022-08-11T02:06:41;3.0;;;2.3;;
52342;SDS011;38277;51.972;4.624;2022-08-11T02:11:23;4.9;;;3.2;;
52342;SDS011;38277;51.972;4.624;2022-08-11T02:15:08;2.8;;;2.3;;
52342;SDS011;38277;51.972;4.624;2022-08-11T02:19:32;4.2;;;2.9;;
52342;SDS011;38277;51.972;4.624;2022-08-11T02:23:44;3.3;;;2.5;;
52342;SDS011;38277;51.972;4.624;2022-08-11T02:31:08;2.8;;;2.2;;
52342;SDS011;38277;51.972;4.624;2022-08-11T02:35:15;3.4;;;2.5;;
52342;SDS011;38277;51.972;4.624;2022-08-11T02:39:17;3.5;;;2.5;;
52342;SDS011;38277;51.972;4.624;2022-08-11T02:43:50;2.7;;;2.1;;
52342;SDS011;38277;51.972;4.624;2022-08-11T02:49:44;3.5;;;2.3;;
52342;SDS011;38277;51.972;4.624;2022-08-11T02:53:59;4.0;;;2.3;;
52342;SDS011;38277;51.972;4.624;2022-08-11T02:57:53;4.2;;;2.4;;
52342;SDS011;38277;51.972;4.624;2022-08-11T03:02:53;4.5;;;2.3;;
52342;SDS011;38277;51.972;4.624;2022-08-11T03:05:43;4.3;;;2.5;;
52342;SDS011;38277;51.972;4.624;2022-08-11T03:10:08;3.3;;;2.1;;
52342;SDS011;38277;51.972;4.624;2022-08-11T03:14:06;3.1;;;2.3;;
52342;SDS011;38277;51.972;4.624;2022-08-11T03:18:17;3.1;;;2.5;;
52342;SDS011;38277;51.972;4.624;2022-08-11T03:22:36;4.0;;;2.7;;
52342;SDS011;38277;51.972;4.624;2022-08-11T03:26:51;3.4;;;2.6;;
52342;SDS011;38277;51.972;4.624;2022-08-11T03:34:12;3.9;;;2.7;;
52342;SDS011;38277;51.972;4.624;2022-08-11T03:35:24;4.6;;;2.6;;
52342;SDS011;38277;51.972;4.624;2022-08-11T03:39:05;3.4;;;2.5;;
52342;SDS011;38277;51.972;4.624;2022-08-11T03:45:00;3.8;;;2.8;;
52342;SDS011;38277;51.972;4.624;2022-08-11T03:51:22;5.1;;;2.8;;
52342;SDS011;38277;51.972;4.624;2022-08-11T03:54:05;4.9;;;2.5;;
52342;SDS011;38277;51.972;4.624;2022-08-11T04:02:08;6.0;;;3.1;;
52342;SDS011;38277;51.972;4.624;2022-08-11T04:12:38;4.9;;;3.0;;
52342;SDS011;38277;51.972;4.624;2022-08-11T04:20:52;4.5;;;2.9;;
52342;SDS011;38277;51.972;4.624;2022-08-11T04:28:07;4.5;;;2.7;;
52342;SDS011;38277;51.972;4.624;2022-08-11T04:33:15;3.6;;;2.6;;
52342;SDS011;38277;51.972;4.624;2022-08-11T04:38:55;3.9;;;2.6;;
52342;SDS011;38277;51.972;4.624;2022-08-11T04:47:20;4.9;;;2.9;;
52342;SDS011;38277;51.972;4.624;2022-08-11T04:55:27;4.2;;;2.5;;
52342;SDS011;38277;51.972;4.624;2022-08-11T05:00:03;4.6;;;2.8;;
52342;SDS011;38277;51.972;4.624;2022-08-11T05:05:43;4.3;;;2.7;;
52342;SDS011;38277;51.972;4.624;2022-08-11T05:12:35;5.1;;;3.1;;
52342;SDS011;38277;51.972;4.624;2022-08-11T05:15:02;4.5;;;2.6;;
52342;SDS011;38277;51.972;4.624;2022-08-11T05:18:23;3.7;;;2.6;;
52342;SDS011;38277;51.972;4.624;2022-08-11T05:19:21;4.8;;;2.7;;
52342;SDS011;38277;51.972;4.624;2022-08-11T05:19:28;4.7;;;3.0;;
52342;SDS011;38277;51.972;4.624;2022-08-11T05:19:49;4.3;;;2.8;;
52342;SDS011;38277;51.972;4.624;2022-08-11T05:20:13;4.0;;;2.4;;
52342;SDS011;38277;51.972;4.624;2022-08-11T05:21:11;6.7;;;2.9;;
52342;SDS011;38277;51.972;4.624;2022-08-11T05:21:55;3.8;;;2.9;;
52342;SDS011;38277;51.972;4.624;2022-08-11T05:23:26;5.5;;;2.9;;
52342;SDS011;38277;51.972;4.624;2022-08-11T05:25:46;4.7;;;2.9;;
52342;SDS011;38277;51.972;4.624;2022-08-11T05:30:18;6.9;;;3.2;;
52342;SDS011;38277;51.972;4.624;2022-08-11T05:32:04;5.3;;;3.1;;
52342;SDS011;38277;51.972;4.624;2022-08-11T05:34:51;5.1;;;3.1;;
52342;SDS011;38277;51.972;4.624;2022-08-11T05:37:21;3.9;;;2.9;;
52342;SDS011;38277;51.972;4.624;2022-08-11T05:38:38;4.3;;;2.7;;
52342;SDS011;38277;51.972;4.624;2022-08-11T05:41:11;4.2;;;2.6;;
52342;SDS011;38277;51.972;4.624;2022-08-11T05:45:30;4.6;;;2.9;;
52342;SDS011;38277;51.972;4.624;2022-08-11T05:50:02;5.7;;;3.2;;
52342;SDS011;38277;51.972;4.624;2022-08-11T05:54:38;6.5;;;3.1;;
52342;SDS011;38277;51.972;4.624;2022-08-11T05:59:00;5.6;;;3.3;;
52342;SDS011;38277;51.972;4.624;2022-08-11T06:03:38;8.8;;;3.5;;
52342;SDS011;38277;51.972;4.624;2022-08-11T06:14:03;7.6;;;3.5;;
52342;SDS011;38277;51.972;4.624;2022-08-11T06:17:20;6.6;;;3.8;;
52342;SDS011;38277;51.972;4.624;2022-08-11T06:21:25;5.9;;;3.1;;
52342;SDS011;38277;51.972;4.624;2022-08-11T06:26:11;4.0;;;2.9;;
52342;SDS011;38277;51.972;4.624;2022-08-11T06:30:39;5.3;;;3.0;;
52342;SDS011;38277;51.972;4.624;2022-08-11T06:35:18;5.3;;;3.5;;
52342;SDS011;38277;51.972;4.624;2022-08-11T06:40:04;5.3;;;3.1;;
52342;SDS011;38277;51.972;4.624;2022-08-11T06:50:08;6.3;;;4.1;;
52342;SDS011;38277;51.972;4.624;2022-08-11T06:53:05;5.7;;;3.3;;
52342;SDS011;38277;51.972;4.624;2022-08-11T06:57:36;7.5;;;4.2;;
52342;SDS011;38277;51.972;4.624;2022-08-11T07:02:23;5.9;;;3.2;;
52342;SDS011;38277;51.972;4.624;2022-08-11T07:06:40;5.6;;;3.1;;
52342;SDS011;38277;51.972;4.624;2022-08-11T07:13:01;6.6;;;3.7;;
52342;SDS011;38277;51.972;4.624;2022-08-11T07:15:33;7.7;;;4.2;;
52342;SDS011;38277;51.972;4.624;2022-08-11T07:20:12;5.6;;;3.3;;
52342;SDS011;38277;51.972;4.624;2022-08-11T07:24:40;4.3;;;3.4;;
52342;SDS011;38277;51.972;4.624;2022-08-11T07:29:12;7.3;;;3.5;;
52342;SDS011;38277;51.972;4.624;2022-08-11T07:33:54;4.5;;;3.2;;
52342;SDS011;38277;51.972;4.624;2022-08-11T07:38:24;6.4;;;3.3;;
52342;SDS011;38277;51.972;4.624;2022-08-11T07:44:23;3.6;;;2.9;;
52342;SDS011;38277;51.972;4.624;2022-08-11T07:47:14;6.4;;;3.6;;
52342;SDS011;38277;51.972;4.624;2022-08-11T07:51:26;8.2;;;3.7;;
52342;SDS011;38277;51.972;4.624;2022-08-11T07:56:20;6.1;;;3.2;;
52342;SDS011;38277;51.972;4.624;2022-08-11T08:00:25;9.3;;;3.4;;
52342;SDS011;38277;51.972;4.624;2022-08-11T08:05:19;5.3;;;3.5;;
52342;SDS011;38277;51.972;4.624;2022-08-11T08:09:39;4.8;;;2.8;;
52342;SDS011;38277;51.972;4.624;2022-08-11T08:14:08;5.3;;;2.9;;
52342;SDS011;38277;51.972;4.624;2022-08-11T08:18:50;5.5;;;2.5;;
52342;SDS011;38277;51.972;4.624;2022-08-11T08:23:07;4.4;;;2.9;;
52342;SDS011;38277;51.972;4.624;2022-08-11T08:27:51;4.7;;;2.5;;
52342;SDS011;38277;51.972;4.624;2022-08-11T08:32:15;7.3;;;3.0;;
52342;SDS011;38277;51.972;4.624;2022-08-11T08:36:40;4.4;;;3.1;;
52342;SDS011;38277;51.972;4.624;2022-08-11T08:41:01;4.3;;;2.3;;
52342;SDS011;38277;51.972;4.624;2022-08-11T08:45:28;6.2;;;2.6;;
52342;SDS011;38277;51.972;4.624;2022-08-11T08:50:10;4.5;;;2.8;;
52342;SDS011;38277;51.972;4.624;2022-08-11T08:56:27;3.7;;;2.4;;
52342;SDS011;38277;51.972;4.624;2022-08-11T08:59:04;4.8;;;2.6;;
52342;SDS011;38277;51.972;4.624;2022-08-11T09:03:25;4.3;;;2.4;;
52342;SDS011;38277;51.972;4.624;2022-08-11T09:08:06;4.9;;;2.3;;
52342;SDS011;38277;51.972;4.624;2022-08-11T09:14:03;3.8;;;2.9;;
52342;SDS011;38277;51.972;4.624;2022-08-11T09:17:18;9.2;;;2.5;;
52342;SDS011;38277;51.972;4.624;2022-08-11T09:21:35;2.6;;;2.2;;
52342;SDS011;38277;51.972;4.624;2022-08-11T09:26:04;3.2;;;2.5;;
52342;SDS011;38277;51.972;4.624;2022-08-11T09:30:30;5.2;;;2.1;;
52342;SDS011;38277;51.972;4.624;2022-08-11T09:35:15;4.0;;;2.2;;
52342;SDS011;38277;51.972;4.624;2022-08-11T09:39:22;5.0;;;2.1;;
52342;SDS011;38277;51.972;4.624;2022-08-11T09:44:21;3.3;;;2.4;;
52342;SDS011;38277;51.972;4.624;2022-08-11T09:50:28;2.8;;;2.1;;
52342;SDS011;38277;51.972;4.624;2022-08-11T09:53:02;4.0;;;2.3;;
52342;SDS011;38277;51.972;4.624;2022-08-11T09:57:50;3.9;;;2.4;;
52342;SDS011;38277;51.972;4.624;2022-08-11T10:02:16;2.9;;;2.0;;
52342;SDS011;38277;51.972;4.624;2022-08-11T10:06:52;3.0;;;2.1;;
52342;SDS011;38277;51.972;4.624;2022-08-11T10:11:12;4.8;;;2.3;;
52342;SDS011;38277;51.972;4.624;2022-08-11T10:15:34;3.4;;;2.2;;
52342;SDS011;38277;51.972;4.624;2022-08-11T10:19:55;4.0;;;2.2;;
52342;SDS011;38277;51.972;4.624;2022-08-11T10:24:26;3.4;;;2.1;;
52342;SDS011;38277;51.972;4.624;2022-08-11T10:29:12;4.4;;;2.2;;
52342;SDS011;38277;51.972;4.624;2022-08-11T10:33:33;4.1;;;2.2;;
52342;SDS011;38277;51.972;4.624;2022-08-11T10:39:34;3.9;;;2.1;;
52342;SDS011;38277;51.972;4.624;2022-08-11T10:42:42;4.5;;;2.5;;
52342;SDS011;38277;51.972;4.624;2022-08-11T10:46:55;4.0;;;2.1;;
52342;SDS011;38277;51.972;4.624;2022-08-11T10:51:42;4.0;;;2.6;;
52342;SDS011;38277;51.972;4.624;2022-08-11T10:55:54;4.9;;;2.1;;
52342;SDS011;38277;51.972;4.624;2022-08-11T11:00:28;5.4;;;1.9;;
52342;SDS011;38277;51.972;4.624;2022-08-11T11:05:25;5.2;;;2.2;;
52342;SDS011;38277;51.972;4.624;2022-08-11T11:09:33;4.5;;;1.8;;
52342;SDS011;38277;51.972;4.624;2022-08-11T11:14:08;5.4;;;2.1;;
52342;SDS011;38277;51.972;4.624;2022-08-11T11:23:19;3.7;;;1.9;;
52342;SDS011;38277;51.972;4.624;2022-08-11T11:27:46;3.9;;;1.6;;
52342;SDS011;38277;51.972;4.624;2022-08-11T11:32:15;3.9;;;1.6;;
52342;SDS011;38277;51.972;4.624;2022-08-11T11:41:06;2.6;;;1.4;;
52342;SDS011;38277;51.972;4.624;2022-08-11T11:45:41;4.0;;;1.6;;
52342;SDS011;38277;51.972;4.624;2022-08-11T11:50:13;4.4;;;1.7;;
52342;SDS011;38277;51.972;4.624;2022-08-11T12:03:27;4.0;;;1.7;;
52342;SDS011;38277;51.972;4.624;2022-08-11T12:08:20;3.5;;;1.7;;
52342;SDS011;38277;51.972;4.624;2022-08-11T12:17:00;3.2;;;1.5;;
52342;SDS011;38277;51.972;4.624;2022-08-11T12:21:37;1.6;;;1.3;;
52342;SDS011;38277;51.972;4.624;2022-08-11T12:26:32;3.7;;;1.7;;
52342;SDS011;38277;51.972;4.624;2022-08-11T12:31:28;2.2;;;1.1;;
52342;SDS011;38277;51.972;4.624;2022-08-11T12:36:24;2.5;;;1.3;;
52342;SDS011;38277;51.972;4.624;2022-08-11T12:44:05;2.8;;;1.5;;
52342;SDS011;38277;51.972;4.624;2022-08-11T12:49:11;3.1;;;1.4;;
52342;SDS011;38277;51.972;4.624;2022-08-11T12:55:36;3.0;;;1.8;;
52342;SDS011;38277;51.972;4.624;2022-08-11T13:00:33;2.6;;;1.2;;
52342;SDS011;38277;51.972;4.624;2022-08-11T13:06:27;2.2;;;1.2;;
52342;SDS011;38277;51.972;4.624;2022-08-11T13:11:23;1.9;;;1.0;;
52342;SDS011;38277;51.972;4.624;2022-08-11T13:16:19;2.7;;;1.2;;
52342;SDS011;38277;51.972;4.624;2022-08-11T13:22:56;3.1;;;1.3;;
52342;SDS011;38277;51.972;4.624;2022-08-11T13:29:12;3.6;;;1.2;;
52342;SDS011;38277;51.972;4.624;2022-08-11T13:34:08;1.2;;;1.1;;
52342;SDS011;38277;51.972;4.624;2022-08-11T13:39:04;2.5;;;1.5;;
52342;SDS011;38277;51.972;4.624;2022-08-11T13:45:39;2.0;;;1.4;;
52342;SDS011;38277;51.972;4.624;2022-08-11T13:51:29;2.0;;;1.3;;
52342;SDS011;38277;51.972;4.624;2022-08-11T13:56:26;4.3;;;1.7;;
52342;SDS011;38277;51.972;4.624;2022-08-11T14:01:22;3.7;;;1.7;;
52342;SDS011;38277;51.972;4.624;2022-08-11T14:07:58;1.9;;;1.1;;
52342;SDS011;38277;51.972;4.624;2022-08-11T14:14:24;1.2;;;1.1;;
52342;SDS011;38277;51.972;4.624;2022-08-11T14:19:14;2.6;;;1.2;;
52342;SDS011;38277;51.972;4.624;2022-08-11T14:24:09;1.8;;;1.2;;
52342;SDS011;38277;51.972;4.624;2022-08-11T14:30:44;2.0;;;1.2;;
52342;SDS011;38277;51.972;4.624;2022-08-11T14:36:38;3.4;;;1.2;;
52342;SDS011;38277;51.972;4.624;2022-08-11T14:41:31;1.4;;;1.2;;
52342;SDS011;38277;51.972;4.624;2022-08-11T14:46:28;2.2;;;1.1;;
52342;SDS011;38277;51.972;4.624;2022-08-11T14:51:24;2.3;;;1.4;;
52342;SDS011;38277;51.972;4.624;2022-08-11T14:59:10;3.1;;;1.7;;
52342;SDS011;38277;51.972;4.624;2022-08-11T15:04:06;1.5;;;1.1;;
52342;SDS011;38277;51.972;4.624;2022-08-11T15:09:03;3.3;;;1.2;;
52342;SDS011;38277;51.972;4.624;2022-08-11T15:15:36;2.0;;;1.1;;
52342;SDS011;38277;51.972;4.624;2022-08-11T15:21:39;2.9;;;1.3;;
52342;SDS011;38277;51.972;4.624;2022-08-11T15:26:38;3.0;;;1.4;;
52342;SDS011;38277;51.972;4.624;2022-08-11T15:31:32;2.4;;;1.3;;
52342;SDS011;38277;51.972;4.624;2022-08-11T15:36:29;2.8;;;1.1;;
52342;SDS011;38277;51.972;4.624;2022-08-11T15:43:58;3.4;;;1.2;;
52342;SDS011;38277;51.972;4.624;2022-08-11T15:48:55;2.5;;;1.3;;
52342;SDS011;38277;51.972;4.624;2022-08-11T15:53:52;2.2;;;1.1;;
52342;SDS011;38277;51.972;4.624;2022-08-11T16:00:25;2.1;;;1.2;;
52342;SDS011;38277;51.972;4.624;2022-08-11T16:08:05;3.3;;;1.1;;
52342;SDS011;38277;51.972;4.624;2022-08-11T16:11:02;2.6;;;1.3;;
52342;SDS011;38277;51.972;4.624;2022-08-11T16:17:10;2.8;;;1.1;;
52342;SDS011;38277;51.972;4.624;2022-08-11T16:19:53;1.8;;;1.3;;
52342;SDS011;38277;51.972;4.624;2022-08-11T16:24:51;2.7;;;1.5;;
52342;SDS011;38277;51.972;4.624;2022-08-11T16:28:59;2.8;;;1.5;;
52342;SDS011;38277;51.972;4.624;2022-08-11T16:33:37;1.7;;;1.2;;
52342;SDS011;38277;51.972;4.624;2022-08-11T16:37:59;1.9;;;1.5;;
52342;SDS011;38277;51.972;4.624;2022-08-11T16:44:05;3.4;;;1.7;;
52342;SDS011;38277;51.972;4.624;2022-08-11T16:47:09;2.1;;;1.4;;
52342;SDS011;38277;51.972;4.624;2022-08-11T16:53:29;2.5;;;1.7;;
52342;SDS011;38277;51.972;4.624;2022-08-11T16:56:12;4.9;;;1.5;;
52342;SDS011;38277;51.972;4.624;2022-08-11T17:02:07;2.5;;;1.5;;
52342;SDS011;38277;51.972;4.624;2022-08-11T17:05:10;3.1;;;1.8;;
52342;SDS011;38277;51.972;4.624;2022-08-11T17:11:21;2.0;;;1.4;;
52342;SDS011;38277;51.972;4.624;2022-08-11T17:14:12;4.1;;;1.6;;
52342;SDS011;38277;51.972;4.624;2022-08-11T17:18:57;2.4;;;1.5;;
52342;SDS011;38277;51.972;4.624;2022-08-11T17:22:55;3.8;;;1.5;;
52342;SDS011;38277;51.972;4.624;2022-08-11T17:27:29;3.0;;;1.5;;
52342;SDS011;38277;51.972;4.624;2022-08-11T17:32:04;3.3;;;1.5;;
52342;SDS011;38277;51.972;4.624;2022-08-11T17:41:17;3.2;;;1.7;;
52342;SDS011;38277;51.972;4.624;2022-08-11T17:45:39;1.9;;;1.4;;
52342;SDS011;38277;51.972;4.624;2022-08-11T17:50:11;2.1;;;1.5;;
52342;SDS011;38277;51.972;4.624;2022-08-11T17:54:38;4.1;;;1.6;;
52342;SDS011;38277;51.972;4.624;2022-08-11T17:59:11;2.0;;;1.3;;
52342;SDS011;38277;51.972;4.624;2022-08-11T18:03:37;2.9;;;1.5;;
52342;SDS011;38277;51.972;4.624;2022-08-11T18:08:12;4.1;;;1.4;;
52342;SDS011;38277;51.972;4.624;2022-08-11T18:17:09;2.8;;;1.6;;
52342;SDS011;38277;51.972;4.624;2022-08-11T18:21:35;2.1;;;1.4;;
52342;SDS011;38277;51.972;4.624;2022-08-11T18:26:05;1.8;;;1.5;;
52342;SDS011;38277;51.972;4.624;2022-08-11T18:30:35;3.8;;;2.0;;
52342;SDS011;38277;51.972;4.624;2022-08-11T18:35:19;2.2;;;1.4;;
52342;SDS011;38277;51.972;4.624;2022-08-11T18:39:33;2.2;;;1.6;;
52342;SDS011;38277;51.972;4.624;2022-08-11T18:44:05;2.0;;;1.5;;
52342;SDS011;38277;51.972;4.624;2022-08-11T18:53:15;2.5;;;1.6;;
52342;SDS011;38277;51.972;4.624;2022-08-11T18:57:37;2.4;;;1.3;;
52342;SDS011;38277;51.972;4.624;2022-08-11T19:02:00;3.8;;;1.6;;
52342;SDS011;38277;51.972;4.624;2022-08-11T19:06:46;3.9;;;1.5;;
52342;SDS011;38277;51.972;4.624;2022-08-11T19:11:14;2.0;;;1.5;;
52342;SDS011;38277;51.972;4.624;2022-08-11T19:15:26;2.2;;;1.6;;
52342;SDS011;38277;51.972;4.624;2022-08-11T19:19:53;3.1;;;2.1;;
52342;SDS011;38277;51.972;4.624;2022-08-11T19:24:25;3.0;;;1.8;;
52342;SDS011;38277;51.972;4.624;2022-08-11T19:29:04;2.5;;;1.5;;
52342;SDS011;38277;51.972;4.624;2022-08-11T19:33:31;2.6;;;1.5;;
52342;SDS011;38277;51.972;4.624;2022-08-11T19:37:55;3.6;;;1.7;;
52342;SDS011;38277;51.972;4.624;2022-08-11T19:47:00;2.5;;;1.7;;
52342;SDS011;38277;51.972;4.624;2022-08-11T19:51:39;4.8;;;2.2;;
52342;SDS011;38277;51.972;4.624;2022-08-11T19:55:54;3.7;;;1.7;;
52342;SDS011;38277;51.972;4.624;2022-08-11T20:04:51;2.8;;;1.8;;
52342;SDS011;38277;51.972;4.624;2022-08-11T20:09:49;2.1;;;1.6;;
52342;SDS011;38277;51.972;4.624;2022-08-11T20:14:06;4.0;;;2.7;;
52342;SDS011;38277;51.972;4.624;2022-08-11T20:18:38;3.3;;;1.6;;
52342;SDS011;38277;51.972;4.624;2022-08-11T20:27:35;4.8;;;2.1;;
52342;SDS011;38277;51.972;4.624;2022-08-11T20:31:52;4.2;;;2.1;;
52342;SDS011;38277;51.972;4.624;2022-08-11T20:36:44;2.2;;;1.5;;
52342;SDS011;38277;51.972;4.624;2022-08-11T20:40:56;4.0;;;1.8;;
52342;SDS011;38277;51.972;4.624;2022-08-11T20:45:25;2.6;;;1.6;;
52342;SDS011;38277;51.972;4.624;2022-08-11T20:49:58;4.3;;;1.8;;
52342;SDS011;38277;51.972;4.624;2022-08-11T20:54:44;4.2;;;2.0;;
52342;SDS011;38277;51.972;4.624;2022-08-11T20:59:17;3.3;;;1.9;;
52342;SDS011;38277;51.972;4.624;2022-08-11T21:03:31;3.4;;;1.8;;
52342;SDS011;38277;51.972;4.624;2022-08-11T21:08:20;4.0;;;2.0;;
52342;SDS011;38277;51.972;4.624;2022-08-11T21:17:07;4.4;;;2.0;;
52342;SDS011;38277;51.972;4.624;2022-08-11T21:21:31;2.3;;;2.1;;
52342;SDS011;38277;51.972;4.624;2022-08-11T21:25:54;3.8;;;2.3;;
52342;SDS011;38277;51.972;4.624;2022-08-11T21:39:48;2.7;;;1.9;;
52342;SDS011;38277;51.972;4.624;2022-08-11T21:44:09;3.8;;;1.7;;
52342;SDS011;38277;51.972;4.624;2022-08-11T21:53:16;2.0;;;1.7;;
52342;SDS011;38277;51.972;4.624;2022-08-11T21:57:46;3.4;;;2.1;;
52342;SDS011;38277;51.972;4.624;2022-08-11T22:02:10;2.7;;;1.8;;
52342;SDS011;38277;51.972;4.624;2022-08-11T22:06:48;3.5;;;2.2;;
52342;SDS011;38277;51.972;4.624;2022-08-11T22:11:21;3.6;;;1.8;;
52342;SDS011;38277;51.972;4.624;2022-08-11T22:15:25;2.8;;;1.7;;
52342;SDS011;38277;51.972;4.624;2022-08-11T22:20:20;2.6;;;1.9;;
52342;SDS011;38277;51.972;4.624;2022-08-11T22:24:26;4.1;;;2.0;;
52342;SDS011;38277;51.972;4.624;2022-08-11T22:29:14;2.8;;;1.8;;
52342;SDS011;38277;51.972;4.624;2022-08-11T22:33:26;4.3;;;2.3;;
52342;SDS011;38277;51.972;4.624;2022-08-11T22:38:08;2.9;;;1.8;;
52342;SDS011;38277;51.972;4.624;2022-08-11T22:42:33;3.7;;;1.8;;
52342;SDS011;38277;51.972;4.624;2022-08-11T22:47:08;2.1;;;1.7;;
52342;SDS011;38277;51.972;4.624;2022-08-11T22:51:37;2.9;;;1.9;;
52342;SDS011;38277;51.972;4.624;2022-08-11T22:56:04;3.8;;;2.0;;
52342;SDS011;38277;51.972;4.624;2022-08-11T23:06:38;3.4;;;1.8;;
52342;SDS011;38277;51.972;4.624;2022-08-11T23:09:25;2.9;;;1.8;;
52342;SDS011;38277;51.972;4.624;2022-08-11T23:14:13;3.6;;;2.2;;
52342;SDS011;38277;51.972;4.624;2022-08-11T23:18:44;2.3;;;1.9;;
52342;SDS011;38277;51.972;4.624;2022-08-11T23:22:56;3.7;;;1.9;;
52342;SDS011;38277;51.972;4.624;2022-08-11T23:27:50;2.9;;;1.8;;
52342;SDS011;38277;51.972;4.624;2022-08-11T23:32:18;2.9;;;2.0;;
52342;SDS011;38277;51.972;4.624;2022-08-11T23:36:27;2.7;;;2.0;;
52342;SDS011;38277;51.972;4.624;2022-08-11T23:41:15;3.0;;;2.1;;
52342;SDS011;38277;51.972;4.624;2022-08-11T23:45:42;4.0;;;1.8;;
52342;SDS011;38277;51.972;4.624;2022-08-11T23:49:51;3.7;;;2.0;;
52342;SDS011;38277;51.972;4.624;2022-08-11T23:54:48;3.0;;;2.1;;
52342;SDS011;38277;51.972;4.624;2022-08-11T23:58:55;4.2;;;2.0;;
